Time;durP1;ratioP1;P1;durP2;ratioP2;P2;SDS_P1;SDS_P2;PMS_P1;PMS_P2;Temp;Humidity;BMP_temperature;BMP_pressure;BME280_temperature;BME280_humidity;BME280_pressure;Samples;Min_cycle;Max_cycle;Signal;HPM_P1;HPM_P2
2022/01/14 00:00:38;;;;;;;11.30;6.28;;;;;;;;;;5061951;28;20068;-70
2022/01/14 00:03:05;;;;;;;11.18;6.20;;;;;;;;;;5045816;28;20032;-72
2022/01/14 00:05:30;;;;;;;12.55;6.35;;;;;;;;;;5064248;28;20554;-74
2022/01/14 00:07:56;;;;;;;11.40;6.47;;;;;;;;;;5064163;28;20048;-74
2022/01/14 00:10:21;;;;;;;14.43;7.05;;;;;;;;;;5045064;28;20044;-74
2022/01/14 00:12:53;;;;;;;11.10;6.38;;;;;;;;;;5064111;28;20112;-73
2022/01/14 00:15:26;;;;;;;13.48;6.28;;;;;;;;;;5061883;28;20052;-71
2022/01/14 00:17:53;;;;;;;9.40;6.07;;;;;;;;;;5061731;28;20040;-73
2022/01/14 00:20:20;;;;;;;17.95;6.50;;;;;;;;;;5077011;28;20036;-70
2022/01/14 00:22:46;;;;;;;13.57;6.05;;;;;;;;;;5045174;28;20127;-73
2022/01/14 00:33:19;;;;;;;13.07;6.80;;;;;;;;;;5033996;28;20041;-73
2022/01/14 00:35:44;;;;;;;13.55;7.35;;;;;;;;;;5061360;28;20029;-73
2022/01/14 00:38:10;;;;;;;13.60;7.03;;;;;;;;;;5061447;28;20040;-74
2022/01/14 00:40:36;;;;;;;12.57;7.28;;;;;;;;;;5061481;28;20504;-73
2022/01/14 00:43:03;;;;;;;11.70;6.57;;;;;;;;;;5060004;28;20037;-73
2022/01/14 00:45:29;;;;;;;11.63;7.03;;;;;;;;;;5061118;28;20048;-73
2022/01/14 00:47:54;;;;;;;13.20;7.20;;;;;;;;;;5062297;28;20044;-73
2022/01/14 00:50:20;;;;;;;11.77;7.07;;;;;;;;;;5060990;28;20032;-73
2022/01/14 00:52:46;;;;;;;13.38;7.20;;;;;;;;;;5061874;28;20528;-73
2022/01/14 00:55:15;;;;;;;12.73;7.50;;;;;;;;;;5062363;28;20032;-73
2022/01/14 01:00:33;;;;;;;13.15;7.10;;;;;;;;;;5062234;28;20040;-77
2022/01/14 01:02:59;;;;;;;13.80;7.97;;;;;;;;;;5062511;28;20043;-72
2022/01/14 01:05:25;;;;;;;13.05;7.47;;;;;;;;;;5059674;28;20028;-72
2022/01/14 01:08:04;;;;;;;11.55;6.93;;;;;;;;;;5062106;28;20039;-72
2022/01/14 01:10:30;;;;;;;11.77;7.47;;;;;;;;;;5043974;28;20056;-74
2022/01/14 01:13:04;;;;;;;15.23;7.65;;;;;;;;;;5061249;28;20119;-73
2022/01/14 01:15:30;;;;;;;11.20;7.18;;;;;;;;;;5059578;28;20066;-73
2022/01/14 01:17:55;;;;;;;16.02;7.90;;;;;;;;;;5060841;28;20456;-74
2022/01/14 01:20:21;;;;;;;12.75;7.00;;;;;;;;;;5061935;28;20043;-75
2022/01/14 01:22:50;;;;;;;12.63;6.38;;;;;;;;;;5061942;28;20045;-76
2022/01/14 01:25:38;;;;;;;10.50;5.80;;;;;;;;;;5059565;28;20442;-75
2022/01/14 01:28:04;;;;;;;8.55;5.28;;;;;;;;;;5062063;28;20041;-72
2022/01/14 01:32:56;;;;;;;6.65;4.53;;;;;;;;;;5062332;28;20037;-75
2022/01/14 01:35:22;;;;;;;7.13;4.60;;;;;;;;;;5060389;28;20412;-72
2022/01/14 01:37:48;;;;;;;10.40;4.88;;;;;;;;;;5060779;28;20036;-75
2022/01/14 01:40:14;;;;;;;17.88;6.15;;;;;;;;;;5062090;28;20040;-76
2022/01/14 01:42:43;;;;;;;9.65;4.68;;;;;;;;;;5061365;28;20734;-71
2022/01/14 01:45:11;;;;;;;7.60;5.45;;;;;;;;;;5060675;28;20071;-78
2022/01/14 01:47:38;;;;;;;13.63;6.38;;;;;;;;;;5042621;28;20040;-75
2022/01/14 01:50:12;;;;;;;14.05;7.18;;;;;;;;;;5061528;28;20040;-77
2022/01/14 01:52:38;;;;;;;14.02;6.57;;;;;;;;;;5061581;28;20082;-74
2022/01/14 01:55:05;;;;;;;12.98;6.40;;;;;;;;;;5061316;28;20040;-71
2022/01/14 01:57:30;;;;;;;11.43;6.97;;;;;;;;;;5060238;28;20044;-74
2022/01/14 01:59:55;;;;;;;13.18;6.40;;;;;;;;;;5060095;28;20044;-70
2022/01/14 02:02:21;;;;;;;10.52;6.63;;;;;;;;;;5061619;28;20064;-70
2022/01/14 02:04:46;;;;;;;13.95;7.45;;;;;;;;;;5063086;28;20618;-71
2022/01/14 02:07:12;;;;;;;10.23;6.45;;;;;;;;;;5061277;28;20036;-76
2022/01/14 02:09:37;;;;;;;12.63;6.70;;;;;;;;;;5060424;28;20531;-70
2022/01/14 02:12:09;;;;;;;14.82;6.63;;;;;;;;;;5055661;28;20039;-74
2022/01/14 02:19:30;;;;;;;12.18;6.13;;;;;;;;;;5060280;28;20048;-71
2022/01/14 02:22:13;;;;;;;11.70;7.07;;;;;;;;;;5059466;28;20040;-74
2022/01/14 02:27:12;;;;;;;12.70;7.32;;;;;;;;;;5060993;28;20052;-71
2022/01/14 02:29:38;;;;;;;12.13;6.80;;;;;;;;;;5061391;28;20093;-70
2022/01/14 02:32:04;;;;;;;13.07;7.50;;;;;;;;;;5060251;28;20424;-76
2022/01/14 02:34:30;;;;;;;15.00;7.28;;;;;;;;;;5061446;28;20440;-73
2022/01/14 02:36:56;;;;;;;10.30;7.05;;;;;;;;;;5059359;28;20093;-75
2022/01/14 02:39:21;;;;;;;16.92;8.18;;;;;;;;;;5059666;28;20543;-72
2022/01/14 02:41:50;;;;;;;19.38;7.10;;;;;;;;;;5059689;28;20040;-71
2022/01/14 02:44:23;;;;;;;14.00;8.02;;;;;;;;;;5060458;28;20123;-73
2022/01/14 02:46:53;;;;;;;13.93;6.65;;;;;;;;;;5059015;28;20160;-72
2022/01/14 02:49:21;;;;;;;15.75;8.30;;;;;;;;;;5059671;28;20101;-72
2022/01/14 02:51:46;;;;;;;12.27;7.53;;;;;;;;;;5060857;28;20051;-70
2022/01/14 02:54:15;;;;;;;15.00;7.63;;;;;;;;;;5060448;28;20028;-71
2022/01/14 02:56:43;;;;;;;15.20;7.85;;;;;;;;;;5047079;28;20131;-72
2022/01/14 02:59:15;;;;;;;21.48;7.43;;;;;;;;;;5064756;28;20052;-73
2022/01/14 03:01:40;;;;;;;13.82;7.75;;;;;;;;;;5080307;28;20059;-71
2022/01/14 03:04:08;;;;;;;16.45;8.23;;;;;;;;;;5061512;28;20044;-73
2022/01/14 03:06:33;;;;;;;14.93;7.68;;;;;;;;;;5079100;28;20514;-69
2022/01/14 03:09:00;;;;;;;18.50;8.82;;;;;;;;;;5063343;28;21147;-72
2022/01/14 03:11:35;;;;;;;15.30;7.60;;;;;;;;;;5046215;28;20040;-72
2022/01/14 03:14:02;;;;;;;13.45;7.85;;;;;;;;;;5063253;28;20047;-72
2022/01/14 03:16:29;;;;;;;15.90;8.05;;;;;;;;;;5062869;28;20040;-72
2022/01/14 03:19:05;;;;;;;13.30;7.80;;;;;;;;;;5064385;28;20036;-72
2022/01/14 03:21:36;;;;;;;13.88;7.95;;;;;;;;;;5061618;28;20036;-73
2022/01/14 03:24:14;;;;;;;17.83;8.40;;;;;;;;;;5062778;28;20074;-73
2022/01/14 03:26:39;;;;;;;17.60;7.80;;;;;;;;;;5061099;28;20044;-73
2022/01/14 03:29:04;;;;;;;14.48;7.40;;;;;;;;;;5063959;28;20051;-70
2022/01/14 03:31:30;;;;;;;22.17;9.25;;;;;;;;;;5061621;28;20033;-73
2022/01/14 03:33:55;;;;;;;18.52;8.60;;;;;;;;;;5063430;28;20032;-70
2022/01/14 03:36:21;;;;;;;17.13;8.00;;;;;;;;;;5061628;28;20090;-74
2022/01/14 03:38:46;;;;;;;14.80;7.63;;;;;;;;;;5062337;28;20960;-72
2022/01/14 03:41:12;;;;;;;14.20;7.70;;;;;;;;;;5064077;28;20036;-74
2022/01/14 03:43:38;;;;;;;14.45;7.75;;;;;;;;;;5045089;28;20138;-73
2022/01/14 03:46:04;;;;;;;12.85;6.95;;;;;;;;;;5062374;28;20560;-72
2022/01/14 03:48:29;;;;;;;12.50;6.70;;;;;;;;;;5044445;28;20178;-72
2022/01/14 03:50:55;;;;;;;17.33;6.85;;;;;;;;;;5062319;28;20131;-72
2022/01/14 03:53:21;;;;;;;10.52;6.28;;;;;;;;;;5063418;28;20063;-72
2022/01/14 03:55:47;;;;;;;10.15;5.53;;;;;;;;;;5063490;28;20511;-72
2022/01/14 03:58:13;;;;;;;12.88;6.68;;;;;;;;;;5044415;28;20041;-72
2022/01/14 04:00:38;;;;;;;13.70;6.72;;;;;;;;;;5061752;28;20083;-70
2022/01/14 04:03:05;;;;;;;12.65;6.75;;;;;;;;;;5062214;28;20044;-73
2022/01/14 04:05:31;;;;;;;12.38;6.65;;;;;;;;;;5061816;28;20123;-71
2022/01/14 04:07:56;;;;;;;11.73;6.90;;;;;;;;;;5061786;28;20544;-71
2022/01/14 04:10:22;;;;;;;12.00;7.20;;;;;;;;;;5060192;28;20694;-72
2022/01/14 04:12:58;;;;;;;17.60;7.10;;;;;;;;;;5062359;28;20028;-72
2022/01/14 04:15:41;;;;;;;17.42;7.28;;;;;;;;;;5062927;28;20037;-72
2022/01/14 04:18:14;;;;;;;14.13;7.43;;;;;;;;;;5062922;28;20513;-69
2022/01/14 04:20:42;;;;;;;14.13;7.50;;;;;;;;;;5059686;28;20040;-73
2022/01/14 04:23:11;;;;;;;11.50;7.20;;;;;;;;;;5062110;28;20481;-70
2022/01/14 04:25:37;;;;;;;13.77;7.50;;;;;;;;;;5061213;28;20052;-72
2022/01/14 04:28:04;;;;;;;12.93;6.43;;;;;;;;;;5045065;28;20153;-73
2022/01/14 04:30:30;;;;;;;11.18;6.72;;;;;;;;;;5062746;28;20036;-73
2022/01/14 04:32:56;;;;;;;15.07;7.95;;;;;;;;;;5061157;28;20033;-71
2022/01/14 04:35:22;;;;;;;16.45;8.43;;;;;;;;;;5061150;28;20032;-73
2022/01/14 04:37:48;;;;;;;13.80;7.50;;;;;;;;;;5061272;28;20040;-73
2022/01/14 04:40:13;;;;;;;13.07;6.97;;;;;;;;;;5061909;28;20086;-70
2022/01/14 04:42:44;;;;;;;17.42;8.20;;;;;;;;;;5063274;28;20056;-70
2022/01/14 04:45:25;;;;;;;10.48;6.78;;;;;;;;;;5063335;28;20051;-70
2022/01/14 04:47:51;;;;;;;15.32;8.50;;;;;;;;;;5063243;28;20044;-73
2022/01/14 04:50:20;;;;;;;10.90;7.35;;;;;;;;;;5063630;28;20037;-72
2022/01/14 04:52:47;;;;;;;15.43;8.38;;;;;;;;;;5065004;28;20024;-72
2022/01/14 04:55:15;;;;;;;13.40;7.32;;;;;;;;;;5061385;28;20048;-70
2022/01/14 04:57:41;;;;;;;11.55;6.95;;;;;;;;;;5060922;28;20040;-71
2022/01/14 05:00:18;;;;;;;13.00;6.85;;;;;;;;;;5061138;28;20113;-73
2022/01/14 05:02:44;;;;;;;12.07;7.65;;;;;;;;;;5061990;28;20051;-72
2022/01/14 05:05:10;;;;;;;14.13;8.43;;;;;;;;;;5061226;28;20036;-73
2022/01/14 05:07:37;;;;;;;15.65;8.10;;;;;;;;;;5060570;28;20051;-73
2022/01/14 05:12:34;;;;;;;15.90;8.63;;;;;;;;;;5061030;28;20036;-70
2022/01/14 05:15:01;;;;;;;14.07;8.98;;;;;;;;;;5060587;28;20040;-72
2022/01/14 05:17:27;;;;;;;15.90;8.05;;;;;;;;;;5060774;28;20040;-73
2022/01/14 05:19:54;;;;;;;14.10;8.32;;;;;;;;;;5060789;28;20097;-73
2022/01/14 05:22:21;;;;;;;16.77;8.13;;;;;;;;;;5061533;28;20449;-75
2022/01/14 05:24:47;;;;;;;12.43;7.57;;;;;;;;;;5061979;28;20020;-76
2022/01/14 05:27:13;;;;;;;13.05;8.38;;;;;;;;;;5060746;28;20037;-71
2022/01/14 05:29:38;;;;;;;17.27;7.95;;;;;;;;;;5061566;28;20043;-74
2022/01/14 05:32:13;;;;;;;16.60;8.77;;;;;;;;;;5061913;28;20075;-75
2022/01/14 05:34:40;;;;;;;14.80;8.20;;;;;;;;;;5061068;28;20531;-71
2022/01/14 05:37:06;;;;;;;12.30;7.43;;;;;;;;;;5043882;28;20406;-73
2022/01/14 05:39:32;;;;;;;13.63;7.78;;;;;;;;;;5058964;28;20046;-72
2022/01/14 05:42:00;;;;;;;11.82;7.65;;;;;;;;;;5061617;28;20407;-74
2022/01/14 05:44:26;;;;;;;11.80;7.72;;;;;;;;;;5061380;28;20397;-69
2022/01/14 05:46:53;;;;;;;14.15;7.72;;;;;;;;;;5076642;28;20469;-74
2022/01/14 05:49:20;;;;;;;14.55;8.07;;;;;;;;;;5058710;28;20044;-70
2022/01/14 05:51:46;;;;;;;17.23;8.25;;;;;;;;;;5060547;28;20043;-74
2022/01/14 05:54:13;;;;;;;14.40;7.78;;;;;;;;;;5060462;28;20044;-73
2022/01/14 05:56:38;;;;;;;13.88;8.00;;;;;;;;;;5060246;28;20039;-72
2022/01/14 05:59:04;;;;;;;18.38;7.95;;;;;;;;;;5061332;28;20044;-69
2022/01/14 06:01:32;;;;;;;19.60;8.27;;;;;;;;;;5072912;28;20040;-71
2022/01/14 06:04:01;;;;;;;15.48;8.10;;;;;;;;;;5059253;28;20044;-71
2022/01/14 06:06:27;;;;;;;12.60;7.68;;;;;;;;;;5062416;28;20032;-70
2022/01/14 06:08:53;;;;;;;13.50;7.93;;;;;;;;;;5061273;28;20044;-72
2022/01/14 06:11:19;;;;;;;15.95;8.30;;;;;;;;;;5059957;28;20042;-71
2022/01/14 06:13:45;;;;;;;10.93;7.45;;;;;;;;;;5061292;28;20052;-72
2022/01/14 06:16:11;;;;;;;17.88;8.00;;;;;;;;;;5060674;28;20033;-72
2022/01/14 06:18:36;;;;;;;13.95;7.35;;;;;;;;;;5061181;28;20067;-72
2022/01/14 06:21:03;;;;;;;16.73;8.38;;;;;;;;;;5059418;28;20051;-72
2022/01/14 06:23:28;;;;;;;11.73;7.72;;;;;;;;;;5041486;28;20048;-72
2022/01/14 06:25:54;;;;;;;13.38;7.72;;;;;;;;;;5058321;28;20032;-72
2022/01/14 06:28:19;;;;;;;12.48;8.23;;;;;;;;;;5059540;28;20040;-72
2022/01/14 06:30:44;;;;;;;13.73;7.50;;;;;;;;;;5057509;28;20040;-72
2022/01/14 06:33:10;;;;;;;13.13;7.50;;;;;;;;;;5059123;28;20079;-72
2022/01/14 06:35:36;;;;;;;12.57;7.65;;;;;;;;;;5059434;28;20526;-72
2022/01/14 06:38:01;;;;;;;15.57;8.43;;;;;;;;;;5060310;28;20043;-73
2022/01/14 06:40:28;;;;;;;17.27;9.27;;;;;;;;;;5059625;28;20548;-72
2022/01/14 06:42:54;;;;;;;14.60;8.15;;;;;;;;;;5061623;28;20076;-72
2022/01/14 06:45:20;;;;;;;14.60;8.43;;;;;;;;;;5059573;28;20072;-72
2022/01/14 06:47:46;;;;;;;17.05;8.05;;;;;;;;;;5059200;28;20541;-72
2022/01/14 06:50:12;;;;;;;16.75;7.63;;;;;;;;;;5061027;28;20041;-72
2022/01/14 06:52:37;;;;;;;14.77;7.90;;;;;;;;;;5059575;28;20037;-72
2022/01/14 06:55:04;;;;;;;18.30;8.82;;;;;;;;;;5059983;28;20438;-72
2022/01/14 06:57:29;;;;;;;11.15;7.57;;;;;;;;;;5059693;28;20094;-74
2022/01/14 06:59:55;;;;;;;19.58;9.27;;;;;;;;;;5076201;28;20028;-72
2022/01/14 07:02:20;;;;;;;13.68;8.30;;;;;;;;;;5059398;28;20501;-72
2022/01/14 07:04:46;;;;;;;14.68;8.48;;;;;;;;;;5060452;28;20119;-71
2022/01/14 07:07:11;;;;;;;14.38;9.18;;;;;;;;;;5059681;28;20036;-71
2022/01/14 07:09:55;;;;;;;15.55;8.35;;;;;;;;;;5059669;28;20382;-72
2022/01/14 07:12:25;;;;;;;14.05;8.75;;;;;;;;;;5058402;28;20041;-71
2022/01/14 07:14:51;;;;;;;15.40;9.07;;;;;;;;;;5075417;28;20127;-70
2022/01/14 07:17:17;;;;;;;14.57;8.20;;;;;;;;;;5059236;28;20025;-70
2022/01/14 07:19:42;;;;;;;14.10;8.60;;;;;;;;;;5060146;28;20982;-70
2022/01/14 07:22:08;;;;;;;13.40;8.18;;;;;;;;;;5058789;28;20043;-71
2022/01/14 07:24:33;;;;;;;15.18;9.23;;;;;;;;;;5058987;28;20416;-71
2022/01/14 07:26:58;;;;;;;19.17;9.02;;;;;;;;;;5058246;28;20326;-70
2022/01/14 07:29:24;;;;;;;16.60;8.43;;;;;;;;;;5058419;28;20097;-70
2022/01/14 07:31:51;;;;;;;17.73;8.63;;;;;;;;;;5059736;28;20082;-71
2022/01/14 07:34:17;;;;;;;16.48;8.50;;;;;;;;;;5060407;28;20028;-72
2022/01/14 07:36:42;;;;;;;17.38;9.52;;;;;;;;;;5059719;28;20038;-73
2022/01/14 07:39:08;;;;;;;16.35;8.77;;;;;;;;;;5059819;28;20527;-71
2022/01/14 07:41:34;;;;;;;15.68;9.35;;;;;;;;;;5060155;28;20044;-71
2022/01/14 07:43:59;;;;;;;15.95;9.50;;;;;;;;;;5064001;28;20040;-71
2022/01/14 07:46:25;;;;;;;14.57;9.20;;;;;;;;;;5063369;28;20401;-70
2022/01/14 07:48:50;;;;;;;11.95;8.23;;;;;;;;;;5063341;28;20036;-71
2022/01/14 07:51:15;;;;;;;17.50;9.60;;;;;;;;;;5062748;28;20362;-71
2022/01/14 07:53:41;;;;;;;23.88;10.13;;;;;;;;;;5062309;28;20043;-71
2022/01/14 07:56:10;;;;;;;23.13;11.48;;;;;;;;;;5078678;28;20040;-70
2022/01/14 07:58:35;;;;;;;18.35;10.77;;;;;;;;;;5063425;28;20032;-70
2022/01/14 08:01:01;;;;;;;22.25;9.65;;;;;;;;;;5062087;28;20044;-72
2022/01/14 08:03:26;;;;;;;18.90;9.30;;;;;;;;;;5063472;28;20110;-71
2022/01/14 08:05:54;;;;;;;15.60;8.95;;;;;;;;;;5061950;28;20028;-71
2022/01/14 08:08:19;;;;;;;18.25;9.43;;;;;;;;;;5063463;28;20485;-71
2022/01/14 08:10:45;;;;;;;15.82;8.30;;;;;;;;;;5063334;28;20113;-71
2022/01/14 08:13:10;;;;;;;15.80;8.55;;;;;;;;;;5062692;28;20109;-72
2022/01/14 08:15:35;;;;;;;16.30;7.97;;;;;;;;;;5061644;28;20025;-71
2022/01/14 08:18:02;;;;;;;14.15;7.63;;;;;;;;;;5061952;28;20040;-72
2022/01/14 08:20:28;;;;;;;12.55;8.23;;;;;;;;;;5062169;28;20795;-72
2022/01/14 08:22:54;;;;;;;13.02;7.53;;;;;;;;;;5062409;28;20036;-71
2022/01/14 08:25:19;;;;;;;14.30;8.02;;;;;;;;;;5062404;28;20038;-72
2022/01/14 08:27:44;;;;;;;12.73;6.80;;;;;;;;;;5061675;28;20123;-72
2022/01/14 08:30:10;;;;;;;10.43;7.10;;;;;;;;;;5062840;28;20036;-71
2022/01/14 08:32:36;;;;;;;12.63;7.72;;;;;;;;;;5062907;28;20075;-73
2022/01/14 08:35:02;;;;;;;10.50;6.57;;;;;;;;;;5060426;28;20713;-72
2022/01/14 08:37:27;;;;;;;11.95;7.18;;;;;;;;;;5061497;28;20036;-73
2022/01/14 08:39:53;;;;;;;9.80;7.03;;;;;;;;;;5062928;28;20101;-72
2022/01/14 08:42:18;;;;;;;12.23;7.00;;;;;;;;;;5044528;28;20155;-73
2022/01/14 08:44:44;;;;;;;10.95;7.43;;;;;;;;;;5060430;28;20043;-72
2022/01/14 08:47:10;;;;;;;8.85;6.47;;;;;;;;;;5062420;28;20069;-72
2022/01/14 08:49:37;;;;;;;10.57;7.15;;;;;;;;;;5061620;28;20048;-72
2022/01/14 08:52:03;;;;;;;14.20;7.60;;;;;;;;;;5062700;28;20044;-72
2022/01/14 08:54:29;;;;;;;8.75;7.03;;;;;;;;;;5062230;28;20028;-72
2022/01/14 08:56:54;;;;;;;15.00;8.75;;;;;;;;;;5059780;28;20044;-72
2022/01/14 08:59:20;;;;;;;15.48;8.20;;;;;;;;;;5061312;28;20737;-72
2022/01/14 09:01:45;;;;;;;15.48;8.70;;;;;;;;;;5062760;28;20122;-72
2022/01/14 09:04:12;;;;;;;12.73;8.82;;;;;;;;;;5060619;28;20064;-72
2022/01/14 09:06:37;;;;;;;14.00;8.60;;;;;;;;;;5060393;28;20032;-72
2022/01/14 09:09:03;;;;;;;11.35;7.75;;;;;;;;;;5060264;28;20114;-71
2022/01/14 09:11:29;;;;;;;10.13;7.60;;;;;;;;;;5059583;28;20036;-71
2022/01/14 09:13:55;;;;;;;13.27;7.25;;;;;;;;;;5060381;28;20041;-71
2022/01/14 09:16:20;;;;;;;12.70;7.30;;;;;;;;;;5061260;28;20036;-72
2022/01/14 09:18:49;;;;;;;11.30;7.38;;;;;;;;;;5060780;28;20036;-72
2022/01/14 09:21:17;;;;;;;11.48;7.53;;;;;;;;;;5062131;28;20037;-73
2022/01/14 09:23:51;;;;;;;12.65;7.78;;;;;;;;;;5061618;28;20131;-72
2022/01/14 09:26:16;;;;;;;11.38;7.90;;;;;;;;;;5060702;28;20033;-72
2022/01/14 09:28:42;;;;;;;11.75;7.82;;;;;;;;;;5060072;28;20036;-72
2022/01/14 09:31:08;;;;;;;13.40;6.85;;;;;;;;;;5061961;28;20036;-72
2022/01/14 09:33:34;;;;;;;11.77;7.20;;;;;;;;;;5060188;28;20433;-73
2022/01/14 09:36:00;;;;;;;9.07;6.65;;;;;;;;;;5075558;28;20046;-73
2022/01/14 09:38:25;;;;;;;9.52;6.63;;;;;;;;;;5060356;28;20036;-72
2022/01/14 09:40:53;;;;;;;11.52;6.65;;;;;;;;;;5061894;28;20040;-74
2022/01/14 09:43:19;;;;;;;9.90;6.72;;;;;;;;;;5061631;28;20158;-74
2022/01/14 09:45:45;;;;;;;8.40;5.90;;;;;;;;;;5060099;28;20044;-72
2022/01/14 09:48:14;;;;;;;8.70;6.20;;;;;;;;;;5060717;28;20036;-73
2022/01/14 09:50:39;;;;;;;7.65;5.85;;;;;;;;;;5060749;28;20090;-73
2022/01/14 09:53:04;;;;;;;9.77;6.30;;;;;;;;;;5061546;28;20496;-73
2022/01/14 09:55:30;;;;;;;7.57;6.15;;;;;;;;;;5061106;28;20560;-73
2022/01/14 09:57:57;;;;;;;5.93;4.53;;;;;;;;;;5061271;28;20153;-72
2022/01/14 10:00:23;;;;;;;4.78;3.13;;;;;;;;;;5060641;28;20039;-72
2022/01/14 10:02:51;;;;;;;4.15;3.25;;;;;;;;;;5060966;28;20025;-72
2022/01/14 10:05:38;;;;;;;5.00;3.28;;;;;;;;;;5058650;28;20036;-73
2022/01/14 10:08:08;;;;;;;4.55;3.03;;;;;;;;;;5061286;28;20032;-73
2022/01/14 10:10:36;;;;;;;4.95;2.97;;;;;;;;;;5058694;28;20060;-72
2022/01/14 10:13:13;;;;;;;4.55;3.00;;;;;;;;;;5060352;28;20461;-72
2022/01/14 10:15:47;;;;;;;3.53;2.85;;;;;;;;;;5060589;28;20111;-72
2022/01/14 10:18:15;;;;;;;6.85;2.97;;;;;;;;;;5061408;28;20039;-71
2022/01/14 10:20:41;;;;;;;4.40;3.10;;;;;;;;;;5060176;28;20059;-71
2022/01/14 10:23:07;;;;;;;2.80;2.58;;;;;;;;;;5060823;28;20036;-71
2022/01/14 10:25:33;;;;;;;3.65;2.25;;;;;;;;;;5060420;28;21482;-72
2022/01/14 10:27:58;;;;;;;3.05;2.28;;;;;;;;;;5060737;28;20492;-75
2022/01/14 10:30:31;;;;;;;6.55;2.88;;;;;;;;;;5075670;28;20054;-72
2022/01/14 10:33:08;;;;;;;3.03;2.20;;;;;;;;;;5056524;28;20396;-72
2022/01/14 10:35:43;;;;;;;2.38;2.00;;;;;;;;;;5060616;28;20106;-72
2022/01/14 10:38:10;;;;;;;2.25;2.00;;;;;;;;;;5059428;28;20040;-71
2022/01/14 10:40:43;;;;;;;3.00;2.47;;;;;;;;;;5060688;28;20041;-71
2022/01/14 10:43:12;;;;;;;5.60;2.47;;;;;;;;;;5059953;28;20040;-71
2022/01/14 10:45:39;;;;;;;3.42;2.53;;;;;;;;;;5060209;28;20067;-71
2022/01/14 10:48:05;;;;;;;2.58;2.20;;;;;;;;;;5060450;28;20515;-72
2022/01/14 10:50:39;;;;;;;3.15;2.20;;;;;;;;;;5060566;28;20028;-71
2022/01/14 10:53:25;;;;;;;3.08;2.40;;;;;;;;;;5059275;28;20043;-72
2022/01/14 10:55:53;;;;;;;2.50;2.30;;;;;;;;;;5060312;28;20051;-71
2022/01/14 10:58:27;;;;;;;7.25;2.85;;;;;;;;;;5058960;28;20114;-72
2022/01/14 11:00:59;;;;;;;3.95;2.38;;;;;;;;;;5060826;28;20044;-72
2022/01/14 11:03:32;;;;;;;4.05;2.88;;;;;;;;;;5059771;28;20039;-72
2022/01/14 11:06:16;;;;;;;3.45;2.20;;;;;;;;;;5058478;28;20040;-72
2022/01/14 11:08:42;;;;;;;4.80;2.97;;;;;;;;;;5058798;28;20040;-72
2022/01/14 11:11:09;;;;;;;4.55;3.47;;;;;;;;;;5058967;28;20114;-70
2022/01/14 11:13:35;;;;;;;4.13;3.03;;;;;;;;;;5058923;28;20040;-71
2022/01/14 11:16:00;;;;;;;4.03;3.20;;;;;;;;;;5058880;28;20020;-71
2022/01/14 11:18:26;;;;;;;3.95;2.25;;;;;;;;;;5062100;28;20098;-71
2022/01/14 11:23:37;;;;;;;3.72;3.28;;;;;;;;;;5063808;28;20087;-72
2022/01/14 11:26:07;;;;;;;9.93;3.55;;;;;;;;;;5062773;28;20497;-73
2022/01/14 11:28:35;;;;;;;5.28;3.13;;;;;;;;;;5063525;28;20036;-75
2022/01/14 11:31:23;;;;;;;4.97;3.25;;;;;;;;;;5061564;28;20477;-72
2022/01/14 11:33:49;;;;;;;6.03;3.70;;;;;;;;;;5064201;28;20441;-71
2022/01/14 11:36:15;;;;;;;6.95;4.10;;;;;;;;;;5063200;28;20520;-72
2022/01/14 11:38:42;;;;;;;5.55;3.80;;;;;;;;;;5063423;28;20028;-71
2022/01/14 11:41:10;;;;;;;5.78;3.90;;;;;;;;;;5063814;28;20071;-71
2022/01/14 11:43:51;;;;;;;8.93;3.60;;;;;;;;;;5062196;28;20036;-72
2022/01/14 11:46:46;;;;;;;10.32;3.97;;;;;;;;;;5061983;28;20125;-72
2022/01/14 11:49:36;;;;;;;7.05;4.03;;;;;;;;;;5062304;28;20076;-73
2022/01/14 11:52:05;;;;;;;4.72;3.55;;;;;;;;;;5063815;28;20036;-73
2022/01/14 11:54:38;;;;;;;5.32;3.72;;;;;;;;;;5062014;28;20029;-72
2022/01/14 11:57:03;;;;;;;4.07;3.67;;;;;;;;;;5061843;28;20032;-73
2022/01/14 11:59:29;;;;;;;5.45;3.80;;;;;;;;;;5061838;28;20037;-73
2022/01/14 12:01:56;;;;;;;6.13;3.97;;;;;;;;;;5062426;28;20485;-72
2022/01/14 12:04:23;;;;;;;7.88;4.05;;;;;;;;;;5045129;28;20063;-72
2022/01/14 12:06:53;;;;;;;5.85;3.97;;;;;;;;;;5063571;28;20047;-74
2022/01/14 12:09:24;;;;;;;8.23;4.15;;;;;;;;;;5062852;28;20044;-73
2022/01/14 12:12:28;;;;;;;8.60;4.22;;;;;;;;;;5062032;28;20048;-74
2022/01/14 12:15:12;;;;;;;6.57;4.38;;;;;;;;;;5045375;28;20538;-72
2022/01/14 12:17:40;;;;;;;8.70;4.60;;;;;;;;;;5063075;28;20059;-75
2022/01/14 12:20:10;;;;;;;4.80;4.15;;;;;;;;;;5062319;28;20148;-73
2022/01/14 12:22:37;;;;;;;6.68;4.60;;;;;;;;;;5062838;28;20037;-71
2022/01/14 12:25:03;;;;;;;9.25;4.95;;;;;;;;;;5063321;28;20373;-72
2022/01/14 12:27:40;;;;;;;8.25;4.78;;;;;;;;;;5062253;28;20408;-72
2022/01/14 12:30:08;;;;;;;6.65;4.53;;;;;;;;;;5063194;28;20036;-73
2022/01/14 12:32:37;;;;;;;6.60;4.75;;;;;;;;;;5062163;28;20052;-71
2022/01/14 12:35:07;;;;;;;8.32;4.70;;;;;;;;;;5062553;28;20033;-72
2022/01/14 12:37:46;;;;;;;11.68;4.55;;;;;;;;;;5061405;28;20480;-73
2022/01/14 12:40:16;;;;;;;9.02;4.60;;;;;;;;;;5061208;28;20044;-73
2022/01/14 12:42:57;;;;;;;15.25;5.65;;;;;;;;;;5060910;28;20048;-73
2022/01/14 12:45:31;;;;;;;7.30;4.45;;;;;;;;;;5077714;28;20036;-73
2022/01/14 12:48:06;;;;;;;6.78;4.18;;;;;;;;;;5059756;28;20075;-71
2022/01/14 12:50:33;;;;;;;6.10;4.45;;;;;;;;;;5062656;28;20032;-72
2022/01/14 12:52:58;;;;;;;6.95;4.65;;;;;;;;;;5060612;28;20038;-72
2022/01/14 12:55:23;;;;;;;17.80;4.85;;;;;;;;;;5061257;28;20443;-72
2022/01/14 12:57:55;;;;;;;6.95;4.50;;;;;;;;;;5061892;28;20042;-73
2022/01/14 13:00:22;;;;;;;;;;;;;;;;;;5062500;28;20036;-72
2022/01/14 13:02:47;;;;;;;6.25;4.45;;;;;;;;;;5062136;28;19917;-71
2022/01/14 13:05:20;;;;;;;5.93;3.67;;;;;;;;;;5061247;28;20040;-72
2022/01/14 13:07:46;;;;;;;6.05;4.38;;;;;;;;;;5060759;28;20059;-72
2022/01/14 13:10:13;;;;;;;6.50;4.05;;;;;;;;;;5060957;28;20051;-73
2022/01/14 13:12:42;;;;;;;6.80;3.30;;;;;;;;;;5062011;28;20043;-72
2022/01/14 13:15:19;;;;;;;9.13;3.53;;;;;;;;;;5059573;28;20051;-72
2022/01/14 13:17:58;;;;;;;7.32;3.33;;;;;;;;;;5061706;28;20115;-72
2022/01/14 13:20:24;;;;;;;8.07;3.42;;;;;;;;;;5061762;28;20436;-71
2022/01/14 13:22:51;;;;;;;18.95;3.72;;;;;;;;;;5061977;28;20033;-72
2022/01/14 13:25:26;;;;;;;5.47;3.30;;;;;;;;;;5056564;28;20036;-71
2022/01/14 13:27:58;;;;;;;5.07;3.80;;;;;;;;;;5060136;28;20051;-71
2022/01/14 13:30:28;;;;;;;;;;;;;;;;;;5058955;28;20469;-71
2022/01/14 13:32:59;;;;;;;3.83;3.00;;;;;;;;;;5061612;28;19935;-71
2022/01/14 13:35:34;;;;;;;4.65;3.45;;;;;;;;;;5061641;28;20028;-71
2022/01/14 13:38:08;;;;;;;4.20;3.15;;;;;;;;;;5060521;28;20048;-71
2022/01/14 13:40:43;;;;;;;8.60;2.95;;;;;;;;;;5058619;28;20086;-71
2022/01/14 13:43:32;;;;;;;4.43;3.20;;;;;;;;;;5061585;28;20111;-70
2022/01/14 13:46:12;;;;;;;4.20;2.55;;;;;;;;;;5061107;28;20037;-70
2022/01/14 13:48:43;;;;;;;6.70;3.25;;;;;;;;;;5059765;28;20044;-71
2022/01/14 13:51:12;;;;;;;5.80;2.85;;;;;;;;;;5059738;28;20044;-70
2022/01/14 13:53:46;;;;;;;4.22;2.72;;;;;;;;;;5060837;28;20086;-73
2022/01/14 13:56:13;;;;;;;4.03;2.80;;;;;;;;;;5059097;28;20115;-73
2022/01/14 13:58:43;;;;;;;3.47;2.72;;;;;;;;;;5059345;28;20042;-71
2022/01/14 14:01:10;;;;;;;3.35;2.35;;;;;;;;;;5060165;28;20036;-72
2022/01/14 14:03:46;;;;;;;2.92;2.42;;;;;;;;;;5060983;28;20072;-71
2022/01/14 14:06:21;;;;;;;2.08;1.90;;;;;;;;;;5060940;28;20040;-71
2022/01/14 14:08:55;;;;;;;5.50;2.70;;;;;;;;;;5059530;28;20766;-70
2022/01/14 14:16:43;;;;;;;8.20;2.40;;;;;;;;;;5060722;28;20036;-72
2022/01/14 14:19:09;;;;;;;4.65;2.35;;;;;;;;;;5061658;28;20032;-72
2022/01/14 14:21:34;;;;;;;2.60;2.22;;;;;;;;;;5052219;28;20051;-73
2022/01/14 14:24:05;;;;;;;4.35;2.45;;;;;;;;;;5053289;28;20144;-72
2022/01/14 14:26:32;;;;;;;6.85;2.70;;;;;;;;;;5058097;28;20071;-71
2022/01/14 14:29:22;;;;;;;4.28;2.67;;;;;;;;;;5058044;28;20071;-71
2022/01/14 14:31:47;;;;;;;4.47;2.60;;;;;;;;;;5058353;28;20059;-71
2022/01/14 14:34:13;;;;;;;6.15;2.70;;;;;;;;;;5057773;28;20548;-70
2022/01/14 14:36:39;;;;;;;7.43;2.78;;;;;;;;;;5059530;28;20032;-71
2022/01/14 14:39:05;;;;;;;6.57;2.65;;;;;;;;;;5059626;28;20047;-70
2022/01/14 14:41:30;;;;;;;7.50;2.70;;;;;;;;;;5060611;28;20028;-70
2022/01/14 14:43:56;;;;;;;3.88;2.40;;;;;;;;;;5058286;28;20025;-72
2022/01/14 14:46:21;;;;;;;7.50;2.40;;;;;;;;;;5059634;28;20826;-72
2022/01/14 14:48:48;;;;;;;5.47;2.72;;;;;;;;;;5059835;28;20127;-72
2022/01/14 14:51:13;;;;;;;13.02;2.55;;;;;;;;;;5061730;28;20075;-72
2022/01/14 14:53:40;;;;;;;4.10;2.17;;;;;;;;;;5062219;28;20055;-73
2022/01/14 14:56:09;;;;;;;4.32;2.60;;;;;;;;;;5061419;28;20090;-74
2022/01/14 14:58:36;;;;;;;5.13;2.28;;;;;;;;;;5062473;28;20047;-73
2022/01/14 15:01:01;;;;;;;8.85;2.35;;;;;;;;;;5059946;28;20040;-71
2022/01/14 15:03:27;;;;;;;8.38;2.30;;;;;;;;;;5063667;28;20499;-71
2022/01/14 15:05:52;;;;;;;5.00;2.30;;;;;;;;;;5055752;28;20463;-71
2022/01/14 15:08:18;;;;;;;6.55;2.40;;;;;;;;;;5063342;28;20097;-72
2022/01/14 15:10:44;;;;;;;7.82;2.40;;;;;;;;;;5064404;28;20273;-71
2022/01/14 15:13:10;;;;;;;4.78;2.20;;;;;;;;;;5064277;28;20159;-71